createdAt,value
2022-12-03T00:00:21.981Z,100.00
2022-12-03T00:03:24.730Z,100.00
2022-12-03T00:06:31.464Z,100.00
2022-12-03T00:09:37.174Z,100.00
2022-12-03T00:12:39.314Z,100.00
2022-12-03T00:15:41.871Z,100.00
2022-12-03T00:18:44.154Z,100.00
2022-12-03T00:21:46.626Z,100.00
2022-12-03T00:24:48.821Z,100.00
2022-12-03T00:27:51.327Z,100.00
2022-12-03T00:30:54.267Z,100.00
2022-12-03T00:33:56.772Z,100.00
2022-12-03T00:36:59.068Z,100.00
2022-12-03T00:40:02.636Z,100.00
2022-12-03T00:43:04.819Z,100.00
2022-12-03T00:46:07.505Z,100.00
2022-12-03T00:49:10.166Z,100.00
2022-12-03T00:52:12.703Z,100.00
2022-12-03T00:55:14.982Z,100.00
2022-12-03T00:58:18.259Z,100.00
2022-12-03T01:01:20.658Z,100.00
2022-12-03T01:04:23.375Z,100.00
2022-12-03T01:07:25.648Z,100.00
2022-12-03T01:10:28.179Z,100.00
2022-12-03T01:13:30.499Z,100.00
2022-12-03T01:16:33.518Z,100.00
2022-12-03T01:19:35.977Z,100.00
2022-12-03T01:22:38.494Z,100.00
2022-12-03T01:25:40.722Z,100.00
2022-12-03T01:28:43.437Z,100.00
2022-12-03T01:32:04.196Z,100.00
2022-12-03T01:35:07.172Z,100.00
2022-12-03T01:38:09.434Z,100.00
2022-12-03T01:41:12.195Z,100.00
2022-12-03T01:44:19.505Z,100.00
2022-12-03T01:47:24.611Z,100.00
2022-12-03T01:50:31.796Z,100.00
2022-12-03T01:53:34.540Z,100.00
2022-12-03T01:56:36.827Z,100.00
2022-12-03T01:59:39.615Z,100.00
2022-12-03T02:02:43.389Z,100.00
2022-12-03T02:05:45.834Z,100.00
2022-12-03T02:08:48.577Z,100.00
2022-12-03T02:11:51.034Z,100.00
2022-12-03T02:14:53.743Z,100.00
2022-12-03T02:17:56.682Z,100.00
2022-12-03T02:21:06.449Z,100.00
2022-12-03T02:24:16.262Z,100.00
2022-12-03T02:27:18.602Z,100.00
2022-12-03T02:30:22.451Z,100.00
2022-12-03T02:33:24.930Z,100.00
2022-12-03T02:36:27.607Z,100.00
2022-12-03T02:39:30.800Z,100.00
2022-12-03T02:42:36.046Z,100.00
2022-12-03T02:45:46.003Z,100.00
2022-12-03T02:48:48.978Z,100.00
2022-12-03T02:51:51.409Z,100.00
2022-12-03T02:54:54.382Z,100.00
2022-12-03T02:57:57.258Z,100.00
2022-12-03T03:01:00.975Z,100.00
2022-12-03T03:04:04.519Z,100.00
2022-12-03T03:07:07.506Z,100.00
2022-12-03T03:10:12.374Z,100.00
2022-12-03T03:13:16.989Z,100.00
2022-12-03T03:16:19.253Z,100.00
2022-12-03T03:19:23.263Z,100.00
2022-12-03T03:22:34.145Z,100.00
2022-12-03T03:25:37.593Z,100.00
2022-12-03T03:28:45.040Z,100.00
2022-12-03T03:31:47.989Z,100.00
2022-12-03T03:34:50.402Z,100.00
2022-12-03T03:37:53.724Z,100.00
2022-12-03T03:40:56.382Z,100.00
2022-12-03T03:43:59.012Z,100.00
2022-12-03T03:47:01.764Z,100.00
2022-12-03T03:50:04.821Z,100.00
2022-12-03T03:53:07.116Z,100.00
2022-12-03T03:56:10.635Z,100.00
2022-12-03T03:59:13.593Z,100.00
2022-12-03T04:02:19.922Z,100.00
2022-12-03T04:05:23.298Z,100.00
2022-12-03T04:08:25.616Z,100.00
2022-12-03T04:11:46.792Z,100.00
2022-12-03T04:14:48.998Z,100.00
2022-12-03T04:18:10.282Z,100.00
2022-12-03T04:21:35.543Z,100.00
2022-12-03T04:24:37.999Z,100.00
2022-12-03T04:27:58.645Z,100.00
2022-12-03T04:31:21.215Z,100.00
2022-12-03T04:34:42.330Z,100.00
2022-12-03T04:37:44.843Z,100.00
2022-12-03T04:41:04.239Z,100.00
2022-12-03T04:44:25.740Z,100.00
2022-12-03T04:47:27.997Z,100.00
2022-12-03T04:50:30.474Z,100.00
2022-12-03T04:53:35.366Z,100.00
2022-12-03T04:56:38.640Z,100.00
2022-12-03T04:59:41.151Z,100.00
2022-12-03T05:02:43.704Z,100.00
2022-12-03T05:05:46.257Z,100.00
2022-12-03T05:08:48.874Z,100.00
2022-12-03T05:11:51.184Z,100.00
2022-12-03T05:14:53.957Z,100.00
2022-12-03T05:17:56.369Z,100.00
2022-12-03T05:20:58.839Z,100.00
2022-12-03T05:24:01.268Z,100.00
2022-12-03T05:27:03.790Z,100.00
2022-12-03T05:30:06.406Z,100.00
2022-12-03T05:33:08.870Z,100.00
2022-12-03T05:36:11.102Z,100.00
2022-12-03T05:39:13.526Z,100.00
2022-12-03T05:42:34.560Z,100.00
2022-12-03T05:45:38.520Z,100.00
2022-12-03T05:48:48.060Z,100.00
2022-12-03T05:51:55.097Z,100.00
2022-12-03T05:55:00.435Z,100.00
2022-12-03T05:58:04.538Z,100.00
2022-12-03T06:01:06.805Z,100.00
2022-12-03T06:04:09.423Z,100.00
2022-12-03T06:07:14.134Z,100.00
2022-12-03T06:10:19.334Z,100.00
2022-12-03T06:13:21.618Z,100.00
2022-12-03T06:16:24.102Z,100.00
2022-12-03T06:19:26.347Z,100.00
2022-12-03T06:22:28.874Z,100.00
2022-12-03T06:25:31.133Z,100.00
2022-12-03T06:28:33.637Z,100.00
2022-12-03T06:31:35.965Z,100.00
2022-12-03T06:34:38.532Z,100.00
2022-12-03T06:37:40.694Z,100.00
2022-12-03T06:40:43.154Z,100.00
2022-12-03T06:43:45.338Z,100.00
2022-12-03T06:46:50.457Z,100.00
2022-12-03T06:49:52.733Z,100.00
2022-12-03T06:52:55.195Z,100.00
2022-12-03T06:55:57.415Z,100.00
2022-12-03T06:59:00.230Z,100.00
2022-12-03T07:02:02.607Z,100.00
2022-12-03T07:05:05.565Z,100.00
2022-12-03T07:08:07.977Z,100.00
2022-12-03T07:11:30.482Z,100.00
2022-12-03T07:14:32.825Z,100.00
2022-12-03T07:17:35.366Z,100.00
2022-12-03T07:20:37.864Z,100.00
2022-12-03T07:23:40.546Z,100.00
2022-12-03T07:26:42.805Z,100.00
2022-12-03T07:29:45.620Z,100.00
2022-12-03T07:32:48.323Z,100.00
2022-12-03T07:35:50.894Z,100.00
2022-12-03T07:38:53.183Z,100.00
2022-12-03T07:41:55.766Z,100.00
2022-12-03T07:44:57.991Z,100.00
2022-12-03T07:48:00.521Z,100.00
2022-12-03T07:51:02.722Z,100.00
2022-12-03T07:54:05.370Z,100.00
2022-12-03T07:57:07.624Z,100.00
2022-12-03T08:00:10.706Z,100.00
2022-12-03T08:03:13.315Z,100.00
2022-12-03T08:06:15.597Z,100.00
2022-12-03T08:09:18.294Z,100.00
2022-12-03T08:12:23.886Z,100.00
2022-12-03T08:15:30.126Z,100.00
2022-12-03T08:18:36.144Z,100.00
2022-12-03T08:21:39.155Z,100.00
2022-12-03T08:24:41.428Z,100.00
2022-12-03T08:27:43.888Z,100.00
2022-12-03T08:31:05.020Z,100.00
2022-12-03T08:34:27.827Z,100.00
2022-12-03T08:37:30.273Z,100.00
2022-12-03T08:40:35.323Z,100.00
2022-12-03T08:43:42.759Z,100.00
2022-12-03T08:46:45.294Z,100.00
2022-12-03T08:49:51.508Z,100.00
2022-12-03T08:52:56.014Z,100.00
2022-12-03T08:56:02.908Z,100.00
2022-12-03T08:59:14.643Z,100.00
2022-12-03T09:02:22.406Z,100.00
2022-12-03T09:05:33.777Z,100.00
2022-12-03T09:08:36.120Z,100.00
2022-12-03T09:11:38.980Z,100.00
2022-12-03T09:14:41.175Z,100.00
2022-12-03T09:17:43.624Z,100.00
2022-12-03T09:20:45.903Z,100.00
2022-12-03T09:23:48.958Z,100.00
2022-12-03T09:26:51.364Z,100.00
2022-12-03T09:29:53.925Z,100.00
2022-12-03T09:32:56.309Z,100.00
2022-12-03T09:35:59.430Z,100.00
2022-12-03T09:39:01.724Z,100.00
2022-12-03T09:42:04.448Z,100.00
2022-12-03T09:45:10.805Z,100.00
2022-12-03T09:48:15.133Z,100.00
2022-12-03T09:51:17.501Z,100.00
2022-12-03T09:54:24.558Z,100.00
2022-12-03T09:57:26.741Z,100.00
2022-12-03T10:00:30.271Z,100.00
2022-12-03T10:03:32.907Z,100.00
2022-12-03T10:06:35.248Z,100.00
2022-12-03T10:09:37.891Z,100.00
2022-12-03T10:12:40.217Z,100.00
2022-12-03T10:15:42.786Z,96.55
2022-12-03T10:18:47.543Z,94.43
2022-12-03T10:21:50.449Z,93.36
2022-12-03T10:25:19.199Z,90.26
2022-12-03T10:28:32.261Z,93.04
2022-12-03T10:31:37.323Z,91.78
2022-12-03T10:34:40.858Z,92.67
2022-12-03T10:38:02.527Z,90.48
2022-12-03T10:41:20.298Z,93.25
2022-12-03T10:44:25.132Z,93.63
2022-12-03T10:47:27.714Z,98.13
2022-12-03T10:50:30.210Z,95.97
2022-12-03T10:53:35.615Z,93.26
2022-12-03T10:56:37.839Z,91.98
2022-12-03T10:59:41.622Z,90.12
2022-12-03T11:02:44.391Z,88.22
2022-12-03T11:05:46.929Z,91.95
2022-12-03T11:08:57.870Z,88.04
2022-12-03T11:12:08.094Z,87.34
2022-12-03T11:15:16.616Z,89.14
2022-12-03T11:18:34.473Z,86.47
2022-12-03T11:21:56.715Z,90.35
2022-12-03T11:25:18.052Z,87.79
2022-12-03T11:28:20.315Z,87.22
2022-12-03T11:31:43.357Z,87.59
2022-12-03T11:34:45.771Z,88.79
2022-12-03T11:37:48.307Z,89.44
2022-12-03T11:41:09.125Z,87.81
2022-12-03T11:44:31.226Z,88.31
2022-12-03T11:47:37.031Z,92.94
2022-12-03T11:50:40.612Z,90.85
2022-12-03T11:53:43.559Z,91.48
2022-12-03T11:56:48.934Z,90.91
2022-12-03T12:00:01.879Z,91.56
2022-12-03T12:03:21.498Z,93.25
2022-12-03T12:06:24.178Z,92.25
2022-12-03T12:09:45.332Z,91.83
2022-12-03T12:12:54.659Z,91.87
2022-12-03T12:16:20.289Z,93.45
2022-12-03T12:19:36.420Z,92.11
2022-12-03T12:22:39.325Z,93.09
2022-12-03T12:25:42.057Z,91.33
2022-12-03T12:28:44.372Z,92.31
2022-12-03T12:31:53.648Z,93.01
2022-12-03T12:35:02.327Z,92.46
2022-12-03T12:38:07.616Z,92.29
2022-12-03T12:41:09.911Z,92.13
2022-12-03T12:44:15.084Z,93.45
2022-12-03T12:47:17.322Z,93.18
2022-12-03T12:50:20.209Z,94.00
2022-12-03T12:53:22.915Z,94.88
2022-12-03T12:56:32.443Z,96.27
2022-12-03T12:59:34.755Z,99.02
2022-12-03T13:02:41.113Z,97.82
2022-12-03T13:05:45.079Z,97.35
2022-12-03T13:08:48.770Z,97.51
2022-12-03T13:11:58.512Z,97.53
2022-12-03T13:15:00.985Z,98.78
2022-12-03T13:18:18.670Z,97.65
2022-12-03T13:21:22.044Z,97.52
2022-12-03T13:24:25.978Z,97.67
2022-12-03T13:27:29.751Z,98.57
2022-12-03T13:30:33.155Z,98.69
2022-12-03T13:33:35.654Z,97.22
2022-12-03T13:36:44.705Z,98.21
2022-12-03T13:39:52.278Z,97.77
2022-12-03T13:42:55.140Z,98.42
2022-12-03T13:45:58.444Z,98.29
2022-12-03T13:49:02.209Z,98.65
2022-12-03T13:52:10.077Z,97.13
2022-12-03T13:55:22.676Z,97.94
2022-12-03T13:58:25.122Z,98.80
2022-12-03T14:01:28.261Z,98.74
2022-12-03T14:04:30.923Z,98.64
2022-12-03T14:07:33.187Z,100.00
2022-12-03T14:10:35.894Z,100.00
2022-12-03T14:13:38.078Z,98.70
2022-12-03T14:16:41.524Z,99.19
2022-12-03T14:19:43.945Z,99.04
2022-12-03T14:22:46.409Z,99.70
2022-12-03T14:25:48.685Z,100.00
2022-12-03T14:28:51.190Z,100.00
2022-12-03T14:31:54.707Z,100.00
2022-12-03T14:35:01.102Z,100.00
2022-12-03T14:38:05.135Z,100.00
2022-12-03T14:41:27.834Z,100.00
2022-12-03T14:44:30.086Z,100.00
2022-12-03T14:47:32.645Z,100.00
2022-12-03T14:50:35.561Z,100.00
2022-12-03T14:53:38.585Z,100.00
2022-12-03T14:56:40.826Z,100.00
2022-12-03T14:59:44.248Z,100.00
2022-12-03T15:02:47.866Z,100.00
2022-12-03T15:05:50.524Z,100.00
2022-12-03T15:08:52.784Z,100.00
2022-12-03T15:11:55.353Z,100.00
2022-12-03T15:14:57.502Z,100.00
2022-12-03T15:18:00.034Z,100.00
2022-12-03T15:21:02.288Z,100.00
2022-12-03T15:24:04.952Z,100.00
2022-12-03T15:27:07.131Z,100.00
2022-12-03T15:30:09.910Z,100.00
2022-12-03T15:33:12.341Z,100.00
2022-12-03T15:36:14.921Z,100.00
2022-12-03T15:39:17.328Z,100.00
2022-12-03T15:42:19.863Z,100.00
2022-12-03T15:45:22.098Z,100.00
2022-12-03T15:48:24.558Z,100.00
2022-12-03T15:51:26.873Z,100.00
2022-12-03T15:54:29.349Z,100.00
2022-12-03T15:57:33.087Z,100.00
2022-12-03T16:00:35.617Z,100.00
2022-12-03T16:03:38.189Z,100.00
2022-12-03T16:06:40.377Z,100.00
2022-12-03T16:09:43.044Z,100.00
2022-12-03T16:12:45.293Z,100.00
2022-12-03T16:15:47.925Z,100.00
2022-12-03T16:18:50.090Z,100.00
2022-12-03T16:21:54.739Z,100.00
2022-12-03T16:24:56.947Z,100.00
2022-12-03T16:27:59.462Z,100.00
2022-12-03T16:31:02.219Z,100.00
2022-12-03T16:34:07.386Z,100.00
2022-12-03T16:37:10.504Z,100.00
2022-12-03T16:40:22.261Z,100.00
2022-12-03T16:43:24.399Z,100.00
2022-12-03T16:46:27.080Z,100.00
2022-12-03T16:49:29.418Z,100.00
2022-12-03T16:52:31.945Z,100.00
2022-12-03T16:55:34.254Z,100.00
2022-12-03T16:58:36.926Z,100.00
2022-12-03T17:01:39.286Z,100.00
2022-12-03T17:04:41.835Z,100.00
2022-12-03T17:07:44.076Z,100.00
2022-12-03T17:10:46.750Z,100.00
2022-12-03T17:13:49.574Z,100.00
2022-12-03T17:16:52.081Z,100.00
2022-12-03T17:19:54.686Z,100.00
2022-12-03T17:22:57.926Z,100.00
2022-12-03T17:26:00.164Z,100.00
2022-12-03T17:29:03.135Z,100.00
2022-12-03T17:32:06.643Z,100.00
2022-12-03T17:35:09.956Z,100.00
2022-12-03T17:38:12.210Z,100.00
2022-12-03T17:41:14.728Z,100.00
2022-12-03T17:44:21.025Z,100.00
2022-12-03T17:47:23.970Z,100.00
2022-12-03T17:50:26.338Z,100.00
2022-12-03T17:53:28.806Z,100.00
2022-12-03T17:56:31.110Z,100.00
2022-12-03T17:59:33.697Z,100.00
2022-12-03T18:02:35.960Z,100.00
2022-12-03T18:05:38.474Z,100.00
2022-12-03T18:08:41.221Z,100.00
2022-12-03T18:11:43.847Z,100.00
2022-12-03T18:14:46.099Z,100.00
2022-12-03T18:17:48.631Z,100.00
2022-12-03T18:20:52.499Z,100.00
2022-12-03T18:23:55.676Z,100.00
2022-12-03T18:26:57.934Z,100.00
2022-12-03T18:30:00.529Z,100.00
2022-12-03T18:33:02.829Z,100.00
2022-12-03T18:36:06.739Z,100.00
2022-12-03T18:39:18.401Z,100.00
2022-12-03T18:42:21.802Z,100.00
2022-12-03T18:45:24.603Z,100.00
2022-12-03T18:48:27.134Z,100.00
2022-12-03T18:51:29.565Z,100.00
2022-12-03T18:54:32.159Z,100.00
2022-12-03T18:57:34.421Z,100.00
2022-12-03T19:00:38.197Z,100.00
2022-12-03T19:03:40.580Z,100.00
2022-12-03T19:06:43.061Z,100.00
2022-12-03T19:09:45.714Z,100.00
2022-12-03T19:12:48.340Z,100.00
2022-12-03T19:15:51.839Z,100.00
2022-12-03T19:18:55.135Z,100.00
2022-12-03T19:21:57.395Z,100.00
2022-12-03T19:24:59.899Z,100.00
2022-12-03T19:28:02.135Z,100.00
2022-12-03T19:31:09.005Z,100.00
2022-12-03T19:34:11.580Z,100.00
2022-12-03T19:37:14.189Z,100.00
2022-12-03T19:40:16.552Z,100.00
2022-12-03T19:43:19.056Z,100.00
2022-12-03T19:46:22.431Z,100.00
2022-12-03T19:49:25.008Z,100.00
2022-12-03T19:52:27.261Z,100.00
2022-12-03T19:55:29.727Z,100.00
2022-12-03T19:58:31.986Z,100.00
2022-12-03T20:01:35.608Z,100.00
2022-12-03T20:04:38.317Z,100.00
2022-12-03T20:07:40.594Z,100.00
2022-12-03T20:10:43.262Z,100.00
2022-12-03T20:13:45.618Z,100.00
2022-12-03T20:16:48.431Z,100.00
2022-12-03T20:19:51.417Z,100.00
2022-12-03T20:22:54.323Z,100.00
2022-12-03T20:25:56.677Z,100.00
2022-12-03T20:28:59.351Z,100.00
2022-12-03T20:32:02.038Z,100.00
2022-12-03T20:35:04.888Z,100.00
2022-12-03T20:38:07.160Z,100.00
2022-12-03T20:41:11.556Z,100.00
2022-12-03T20:44:14.016Z,100.00
2022-12-03T20:47:17.278Z,100.00
2022-12-03T20:50:19.621Z,100.00
2022-12-03T20:53:25.659Z,100.00
2022-12-03T20:56:39.646Z,100.00
2022-12-03T20:59:42.083Z,100.00
2022-12-03T21:02:45.249Z,100.00
2022-12-03T21:05:48.179Z,100.00
2022-12-03T21:08:52.093Z,100.00
2022-12-03T21:11:54.702Z,100.00
2022-12-03T21:14:56.938Z,100.00
2022-12-03T21:17:59.537Z,100.00
2022-12-03T21:21:02.495Z,100.00
2022-12-03T21:24:05.302Z,100.00
2022-12-03T21:27:07.471Z,100.00
2022-12-03T21:30:10.200Z,100.00
2022-12-03T21:33:12.417Z,100.00
2022-12-03T21:36:16.177Z,100.00
2022-12-03T21:39:19.381Z,100.00
2022-12-03T21:42:36.405Z,100.00
2022-12-03T21:45:39.939Z,100.00
2022-12-03T21:48:42.718Z,100.00
2022-12-03T21:51:46.099Z,100.00
2022-12-03T21:54:51.651Z,100.00
2022-12-03T21:57:53.856Z,100.00
2022-12-03T22:00:56.582Z,100.00
2022-12-03T22:03:59.072Z,100.00
2022-12-03T22:07:01.534Z,100.00
2022-12-03T22:10:05.153Z,100.00
2022-12-03T22:13:07.486Z,100.00
2022-12-03T22:16:11.279Z,100.00
2022-12-03T22:19:13.834Z,100.00
2022-12-03T22:22:16.857Z,100.00
2022-12-03T22:25:19.084Z,100.00
2022-12-03T22:28:21.578Z,100.00
2022-12-03T22:31:23.835Z,100.00
2022-12-03T22:34:26.497Z,100.00
2022-12-03T22:37:28.791Z,100.00
2022-12-03T22:40:31.658Z,100.00
2022-12-03T22:43:34.116Z,100.00
2022-12-03T22:46:36.738Z,100.00
2022-12-03T22:49:39.077Z,100.00
2022-12-03T22:52:41.596Z,100.00
2022-12-03T22:55:44.143Z,100.00
2022-12-03T22:58:46.679Z,100.00
2022-12-03T23:01:49.043Z,100.00
2022-12-03T23:04:54.587Z,100.00
2022-12-03T23:07:56.877Z,100.00
2022-12-03T23:11:00.102Z,100.00
2022-12-03T23:14:02.936Z,100.00
2022-12-03T23:17:05.391Z,100.00
2022-12-03T23:20:10.490Z,100.00
2022-12-03T23:23:13.338Z,100.00
2022-12-03T23:26:16.241Z,100.00
2022-12-03T23:29:18.759Z,100.00
2022-12-03T23:32:21.003Z,100.00
2022-12-03T23:35:23.501Z,100.00
2022-12-03T23:38:25.736Z,100.00
2022-12-03T23:41:28.254Z,100.00
2022-12-03T23:44:32.970Z,100.00
2022-12-03T23:47:35.481Z,100.00
2022-12-03T23:50:41.349Z,100.00
2022-12-03T23:53:44.887Z,100.00
2022-12-03T23:56:47.202Z,100.00
2022-12-03T23:59:49.854Z,100.00
